Westford, MA

12:06 AM EDT on June 03, 2015 (GMT -0400)
Wallace Astrophysical Observatory | | Change Station
CLOSE
Current Station
Personal Weather Station
Location: Westford, MA
Elevation: 351 ft
Nearby Weather Stations

Elev 351 ft 42.61 °N, 71.48 °W | Updated 10 minutes ago

Overcast
Overcast
46.2 °F
Feels Like 46 °F
N
0.0
Wind Variable Wind from ENE
Gusts 0.0 mph

Today
High -- | Low -- °F
--% Chance of Precip.
Yesterday
High -- | Low -- °F
Precip. -- in
5:10 AM 8:18 PM
Full, 100% visible
Pressure 30.23 in
Visibility 10.0 miles
Clouds Overcast 700 ft
Windchill 46 °F
Dew Point 46 °F
Humidity 99%
Rainfall in
Snow Depth Not available.
UV 0 out of 12
Pollen .90 out of 12
Air Quality Not available.
Flu Activity Local Activity
METAR KBED 030356Z AUTO 00000KT 10SM OVC007 08/07 A3019 RMK AO2 SLP237 T00780067 TSNO

More Conditions Fewer Conditions

Pressure 30.23 in
Visibility 10.0 miles
Clouds Overcast 700 ft
Windchill 46 °F
Dew Point 46 °F
Humidity 99%
Rainfall in
Snow Depth Not available.
UV 0 out of 12
Pollen .90 out of 12
Air Quality Not available.
Flu Activity Local Activity
METAR KBED 030356Z AUTO 00000KT 10SM OVC007 08/07 A3019 RMK AO2 SLP237 T00780067 TSNO

More Conditions Fewer Conditions

10-Day Weather Forecast

×

Almanac

Astronomy

Jun. 03, 2015 Rise Set
Actual Time
Civil Twilight
Nautical Twilight
Astronomical Twilight
Moon
Length of Visible Light
Length of Day
Tomorrow will be .
, % of the Moon is Illuminated

Today's Extremes

State Highs State Lows

Community

WunderPhotos

Upload Photos

1,826,155 photos uploaded!

WunderBlogs® & News

Nearby

Air Quality

  Air Quality AQ Index Pollutant
Not available.

Snow Depth

Station Depth Elevation

Earthquake Activity

City Distance Mag. Time & Date
Minimum magnitude displayed is 2.5.

Coastal Water Temperatures

Place Temperature

Stations

Nearby Weather Stations

Station Location Temp. Windchill Dew Point Humidity Wind Precip. Elev Updated Type